Time;durP1;ratioP1;P1;durP2;ratioP2;P2;SDS_P1;SDS_P2;PMS_P1;PMS_P2;Temp;Humidity;BMP_temperature;BMP_pressure;BME280_temperature;BME280_humidity;BME280_pressure;Samples;Min_cycle;Max_cycle;Signal;HPM_P1;HPM_P2
2022/12/20 00:02:25;;;;;;;42.37;19.53;;;;;;;-2.97;98.16;98901.91;6299856;28;20578;-43
2022/12/20 00:05:27;;;;;;;45.80;21.37;;;;;;;-2.95;97.96;98899.31;6292018;28;20572;-43
2022/12/20 00:08:30;;;;;;;42.00;19.77;;;;;;;-2.92;98.31;98894.16;6293162;28;20254;-43
2022/12/20 00:11:32;;;;;;;44.77;19.90;;;;;;;-2.93;97.91;98879.50;6293449;28;20609;-43
2022/12/20 00:14:34;;;;;;;42.83;20.43;;;;;;;-2.94;98.19;98886.41;6294664;28;20320;-43
2022/12/20 00:17:36;;;;;;;47.13;20.90;;;;;;;-2.92;98.20;98879.50;6289610;28;20332;-43
2022/12/20 00:20:38;;;;;;;43.83;20.67;;;;;;;-2.93;97.68;98874.34;6293364;28;20228;-43
2022/12/20 00:23:41;;;;;;;46.40;21.10;;;;;;;-2.97;97.98;98876.09;6293937;28;20222;-43
2022/12/20 00:26:43;;;;;;;45.00;21.47;;;;;;;-2.95;98.27;98883.81;6292823;28;20764;-43
2022/12/20 00:29:45;;;;;;;45.90;21.83;;;;;;;-2.94;97.73;98885.53;6292712;28;20237;-43
2022/12/20 00:32:47;;;;;;;40.23;18.97;;;;;;;-2.94;97.81;98882.97;6291091;28;20226;-43
2022/12/20 00:35:51;;;;;;;41.40;19.43;;;;;;;-3.00;97.75;98865.81;6290900;28;20241;-43
2022/12/20 00:38:55;;;;;;;42.87;21.17;;;;;;;-3.03;97.62;98860.66;6292431;28;20237;-43
2022/12/20 00:41:57;;;;;;;48.27;21.13;;;;;;;-3.02;97.28;98867.53;6272813;28;20222;-43
2022/12/20 00:44:59;;;;;;;43.13;20.37;;;;;;;-3.00;97.84;98878.72;6290585;28;20215;-43
2022/12/20 00:48:01;;;;;;;45.33;20.40;;;;;;;-2.99;98.21;98886.41;6271737;28;20221;-42
2022/12/20 00:51:10;;;;;;;48.43;20.70;;;;;;;-3.01;97.91;98875.28;6275148;28;20214;-43
2022/12/20 00:54:12;;;;;;;44.83;20.37;;;;;;;-3.01;97.68;98885.59;6291497;28;20243;-43
2022/12/20 00:57:14;;;;;;;45.37;20.77;;;;;;;-3.03;97.88;98878.72;6291391;28;20263;-43
2022/12/20 01:00:16;;;;;;;50.43;21.50;;;;;;;-3.05;98.30;98880.44;6290824;28;20213;-43
2022/12/20 01:03:19;;;;;;;43.87;20.37;;;;;;;-3.05;97.93;98885.63;6272287;28;20216;-43
2022/12/20 01:06:23;;;;;;;45.50;21.20;;;;;;;-3.02;97.75;98894.22;6272509;28;20229;-43
2022/12/20 01:09:25;;;;;;;49.00;21.00;;;;;;;-2.98;98.22;98898.47;6292750;28;20308;-44
2022/12/20 01:12:28;;;;;;;43.10;19.50;;;;;;;-2.98;97.99;98902.78;6288171;28;20230;-43
2022/12/20 01:15:30;;;;;;;46.50;20.80;;;;;;;-3.03;97.80;98892.50;6293198;28;20268;-43
2022/12/20 01:18:32;;;;;;;43.40;20.53;;;;;;;-3.04;98.14;98880.44;6289717;28;20229;-44
2022/12/20 01:21:34;;;;;;;43.30;20.43;;;;;;;-3.05;97.96;98885.63;6290350;28;20233;-43
2022/12/20 01:24:37;;;;;;;42.50;19.97;;;;;;;-3.05;98.07;98883.03;6289838;28;20261;-43
2022/12/20 01:27:39;;;;;;;50.47;21.10;;;;;;;-3.06;98.15;98882.19;6290233;28;20233;-43
2022/12/20 01:30:41;;;;;;;42.03;19.60;;;;;;;-3.05;98.24;98868.41;6286650;28;20226;-43
2022/12/20 01:33:45;;;;;;;45.40;20.67;;;;;;;-3.05;98.22;98865.81;6270760;28;20458;-43
2022/12/20 01:36:48;;;;;;;50.10;19.73;;;;;;;-3.03;97.95;98871.84;6290830;28;20237;-43
2022/12/20 01:39:50;;;;;;;42.50;20.47;;;;;;;-3.08;98.24;98873.56;6293396;28;20240;-43
2022/12/20 01:42:53;;;;;;;44.23;20.00;;;;;;;-3.09;98.49;98874.44;6290717;28;20249;-43
2022/12/20 01:45:55;;;;;;;45.93;19.00;;;;;;;-3.10;97.98;98859.84;6288362;28;20266;-43
2022/12/20 01:49:07;;;;;;;47.97;22.23;;;;;;;-3.06;98.76;98852.91;6271956;28;20261;-43
2022/12/20 01:52:32;;;;;;;49.33;23.10;;;;;;;-3.12;98.08;98846.09;6292745;28;20295;-43
2022/12/20 01:55:34;;;;;;;49.10;22.03;;;;;;;-3.17;98.63;98847.81;6274916;28;20240;-43
2022/12/20 01:58:38;;;;;;;47.40;20.23;;;;;;;-3.14;98.66;98846.97;6275269;28;20231;-43
2022/12/20 02:01:42;;;;;;;48.37;20.90;;;;;;;-3.10;98.58;98844.34;6274550;28;20258;-43
2022/12/20 02:04:45;;;;;;;48.87;20.90;;;;;;;-3.08;98.72;98844.31;6291467;28;20312;-43
2022/12/20 02:07:55;;;;;;;50.47;21.60;;;;;;;-3.07;98.40;98866.69;6290519;28;20308;-43
2022/12/20 02:11:15;;;;;;;44.30;20.00;;;;;;;-3.03;98.70;98860.66;6289874;28;20732;-43
2022/12/20 02:14:34;;;;;;;44.50;19.20;;;;;;;-3.04;98.71;98846.88;6273798;28;20601;-43
2022/12/20 02:17:57;;;;;;;43.23;20.20;;;;;;;-3.01;99.18;98852.03;6292962;28;20233;-43
2022/12/20 02:21:16;;;;;;;44.30;19.47;;;;;;;-2.95;98.92;98853.69;6291545;28;20234;-42
2022/12/20 02:24:46;;;;;;;48.47;22.73;;;;;;;-2.97;98.32;98833.03;6289195;28;20217;-43
2022/12/20 02:28:12;;;;;;;45.30;19.80;;;;;;;-2.93;98.52;98840.78;6289578;28;20302;-43
2022/12/20 02:31:20;;;;;;;43.53;20.07;;;;;;;-2.93;98.32;98833.03;6268269;28;20225;-43
2022/12/20 02:34:25;;;;;;;43.03;18.80;;;;;;;-2.92;98.56;98837.34;6277029;28;20276;-43
2022/12/20 02:37:27;;;;;;;44.30;20.70;;;;;;;-2.93;98.42;98835.63;6293253;28;20234;-43
2022/12/20 02:40:42;;;;;;;43.00;19.90;;;;;;;-2.95;98.49;98825.28;6278804;28;20761;-43
2022/12/20 02:47:19;;;;;;;44.30;20.40;;;;;;;-2.93;98.09;98825.28;6275294;28;20262;-43
2022/12/20 02:50:35;;;;;;;43.53;19.80;;;;;;;-2.98;98.43;98817.56;6298067;28;20237;-43
2022/12/20 02:53:38;;;;;;;47.47;20.47;;;;;;;-2.98;98.49;98815.84;6290817;28;20237;-43
2022/12/20 02:57:35;;;;;;;42.97;19.87;;;;;;;-2.94;98.23;98816.69;6278849;28;20225;-43
2022/12/20 03:00:42;;;;;;;45.03;21.07;;;;;;;-2.93;98.34;98820.97;6238515;28;20679;-44
2022/12/20 03:03:44;;;;;;;43.67;20.10;;;;;;;-2.95;98.18;98824.44;6240596;28;20231;-43
2022/12/20 03:07:01;;;;;;;43.60;18.63;;;;;;;-2.93;98.14;98830.44;6237886;28;20273;-43
2022/12/20 03:10:03;;;;;;;42.97;19.73;;;;;;;-2.93;98.28;98839.06;6230801;28;20243;-43
2022/12/20 03:13:06;;;;;;;41.57;19.13;;;;;;;-2.89;98.33;98829.53;6231155;28;20290;-43
2022/12/20 03:16:10;;;;;;;35.83;17.43;;;;;;;-2.87;97.97;98820.06;6238916;28;20797;-43
2022/12/20 03:19:12;;;;;;;41.23;21.07;;;;;;;-2.89;98.00;98822.66;6237364;28;20231;-43
2022/12/20 03:22:14;;;;;;;40.83;20.20;;;;;;;-2.90;98.21;98820.97;6239440;28;20239;-43
2022/12/20 03:25:17;;;;;;;40.77;18.90;;;;;;;-2.92;98.25;98817.53;6238385;28;20253;-43
2022/12/20 03:28:19;;;;;;;41.43;18.63;;;;;;;-2.91;98.05;98818.38;6237586;28;20235;-43
2022/12/20 03:31:21;;;;;;;42.17;18.03;;;;;;;-2.91;98.31;98808.91;6240624;28;20240;-43
2022/12/20 03:34:28;;;;;;;41.07;18.73;;;;;;;-2.90;98.11;98807.19;6242157;28;20238;-43
2022/12/20 03:37:31;;;;;;;46.83;19.27;;;;;;;-2.88;97.83;98806.28;6294302;28;20348;-43
2022/12/20 03:40:35;;;;;;;46.37;19.33;;;;;;;-2.87;97.97;98797.66;6275720;28;20217;-43
2022/12/20 03:43:37;;;;;;;36.60;18.47;;;;;;;-2.89;98.29;98801.97;6293018;28;20241;-43
2022/12/20 03:46:39;;;;;;;45.57;20.73;;;;;;;-2.89;98.25;98801.13;6287879;28;20230;-43
2022/12/20 03:49:42;;;;;;;44.47;19.67;;;;;;;-2.88;98.27;98806.28;6296244;28;20236;-43
2022/12/20 03:52:45;;;;;;;39.67;17.87;;;;;;;-2.83;98.03;98806.25;6277319;28;20234;-42
2022/12/20 03:55:47;;;;;;;41.60;20.40;;;;;;;-2.83;98.09;98804.53;6278508;28;20342;-43
2022/12/20 03:58:49;;;;;;;38.03;18.37;;;;;;;-2.82;98.15;98811.41;6275705;28;20534;-43
2022/12/20 04:01:51;;;;;;;40.17;19.20;;;;;;;-2.83;97.77;98809.69;6285380;28;20234;-43
2022/12/20 04:04:54;;;;;;;44.10;20.30;;;;;;;-2.87;97.89;98795.09;6277489;28;20233;-43
2022/12/20 04:07:56;;;;;;;44.17;19.70;;;;;;;-2.88;98.05;98802.84;6276753;28;20708;-43
2022/12/20 04:11:16;;;;;;;41.67;19.13;;;;;;;-2.87;98.33;98815.75;6272565;28;20237;-43
2022/12/20 04:14:44;;;;;;;43.73;20.67;;;;;;;-2.86;98.24;98824.34;6290900;28;20230;-43
2022/12/20 04:17:47;;;;;;;43.27;20.37;;;;;;;-2.84;97.87;98814.88;6273453;28;20230;-43
2022/12/20 04:20:53;;;;;;;39.83;19.40;;;;;;;-2.84;97.99;98810.56;6274938;28;20244;-43
2022/12/20 04:24:02;;;;;;;45.47;19.93;;;;;;;-2.83;97.95;98811.41;6273735;28;20230;-43
2022/12/20 04:27:17;;;;;;;39.63;18.93;;;;;;;-2.83;98.25;98821.75;6294875;28;20233;-43
2022/12/20 04:30:19;;;;;;;43.73;20.23;;;;;;;-2.82;97.91;98818.31;6292012;28;20210;-43
2022/12/20 04:33:22;;;;;;;42.00;18.97;;;;;;;-2.80;98.40;98820.00;6273803;28;20237;-43
2022/12/20 04:36:25;;;;;;;45.00;19.30;;;;;;;-2.80;98.27;98808.81;6292566;28;20237;-43
2022/12/20 04:39:29;;;;;;;46.40;20.37;;;;;;;-2.82;97.71;98819.16;6291685;28;20222;-44
2022/12/20 04:42:48;;;;;;;39.40;18.37;;;;;;;-2.83;97.85;98806.25;6274455;28;20312;-43
2022/12/20 04:45:55;;;;;;;40.73;18.27;;;;;;;-2.80;98.15;98816.56;6279400;28;20222;-43
2022/12/20 04:48:58;;;;;;;42.83;20.43;;;;;;;-2.83;97.79;98806.25;6256646;28;20237;-43
2022/12/20 04:55:23;;;;;;;48.33;20.83;;;;;;;-2.80;98.19;98788.16;6290034;28;20698;-43
2022/12/20 04:58:26;;;;;;;48.97;20.97;;;;;;;-2.81;98.30;98800.22;6292733;28;20693;-43
2022/12/20 05:01:28;;;;;;;48.50;21.03;;;;;;;-2.79;98.07;98803.63;6292897;28;20230;-43
2022/12/20 05:04:31;;;;;;;40.73;20.60;;;;;;;-2.79;97.97;98800.19;6272832;28;20226;-43
2022/12/20 05:07:39;;;;;;;46.70;19.80;;;;;;;-2.80;97.84;98801.94;6291492;28;20240;-43
2022/12/20 05:10:41;;;;;;;51.70;21.27;;;;;;;-2.83;98.25;98790.75;6290425;28;20230;-43
2022/12/20 05:13:43;;;;;;;44.43;20.83;;;;;;;-2.83;97.89;98791.63;6291894;28;20232;-43
2022/12/20 05:16:46;;;;;;;44.70;20.60;;;;;;;-2.80;98.24;98791.59;6272333;28;20271;-43
2022/12/20 05:19:49;;;;;;;48.13;21.37;;;;;;;-2.83;98.09;98794.19;6268706;28;20749;-43
2022/12/20 05:26:18;;;;;;;49.43;22.30;;;;;;;-2.87;98.42;98773.56;6272211;28;20258;-43
2022/12/20 05:29:22;;;;;;;45.27;21.17;;;;;;;-2.86;98.36;98785.63;6274465;28;20221;-43
2022/12/20 05:32:25;;;;;;;53.33;22.47;;;;;;;-2.86;98.69;98781.31;6275928;28;20234;-43
2022/12/20 05:35:28;;;;;;;45.33;20.20;;;;;;;-2.86;98.21;98788.19;6273121;28;20230;-44
2022/12/20 05:38:38;;;;;;;47.87;22.00;;;;;;;-2.87;98.50;98783.91;6270675;28;20241;-43
2022/12/20 05:41:46;;;;;;;45.43;21.23;;;;;;;-2.87;98.57;98782.19;6273993;28;20233;-43
2022/12/20 05:44:48;;;;;;;46.70;21.17;;;;;;;-2.85;98.92;98777.00;6290560;28;20563;-43
2022/12/20 05:47:50;;;;;;;47.93;20.73;;;;;;;-2.85;98.77;98777.00;6290127;28;20701;-44
2022/12/20 05:50:53;;;;;;;50.73;20.97;;;;;;;-2.83;98.79;98777.84;6293906;28;20225;-43
2022/12/20 05:54:00;;;;;;;44.57;19.90;;;;;;;-2.80;98.85;98786.44;6272162;28;20258;-43
2022/12/20 05:57:15;;;;;;;48.97;19.63;;;;;;;-2.79;98.99;98788.13;6276572;28;20226;-43
2022/12/20 06:00:17;;;;;;;44.53;20.20;;;;;;;-2.79;98.93;98790.69;6274721;28;20206;-43
2022/12/20 06:03:21;;;;;;;52.83;22.37;;;;;;;-2.79;98.46;98787.25;6291568;28;20232;-43
2022/12/20 06:06:25;;;;;;;46.17;21.17;;;;;;;-2.79;98.77;98771.75;6270962;28;20259;-43
2022/12/20 06:09:28;;;;;;;52.20;21.37;;;;;;;-2.85;98.65;98764.09;6276457;28;20236;-43
2022/12/20 06:12:39;;;;;;;50.27;21.43;;;;;;;-2.84;98.74;98783.88;6291888;28;20230;-43
2022/12/20 06:15:41;;;;;;;49.40;21.73;;;;;;;-2.86;98.89;98783.03;6275429;28;20452;-43
2022/12/20 06:18:43;;;;;;;48.83;22.17;;;;;;;-2.87;98.80;98782.19;6271832;28;20214;-43
2022/12/20 06:21:46;;;;;;;48.83;21.00;;;;;;;-2.85;98.97;98784.75;6272147;28;20604;-43
2022/12/20 06:24:50;;;;;;;46.80;21.33;;;;;;;-2.82;98.87;98785.59;6289458;28;20225;-43
2022/12/20 06:27:57;;;;;;;51.43;22.50;;;;;;;-2.79;99.07;98774.34;6255870;28;20272;-43
2022/12/20 06:30:59;;;;;;;48.57;20.70;;;;;;;-2.78;99.05;98781.22;6274894;28;20232;-44
2022/12/20 06:34:12;;;;;;;53.03;22.97;;;;;;;-2.79;99.32;98789.84;6272798;28;20314;-43
2022/12/20 06:37:16;;;;;;;46.77;21.67;;;;;;;-2.81;99.25;98782.13;6272131;28;20710;-43
2022/12/20 06:40:18;;;;;;;53.67;22.90;;;;;;;-2.83;99.15;98783.00;6274883;28;20760;-43
2022/12/20 06:43:20;;;;;;;51.70;22.47;;;;;;;-2.85;99.45;98775.28;6280754;28;20260;-43
2022/12/20 06:46:22;;;;;;;49.10;21.07;;;;;;;-2.80;99.21;98775.25;6257919;28;20233;-43
2022/12/20 06:49:24;;;;;;;49.07;21.07;;;;;;;-2.77;99.45;98772.63;6273672;28;20224;-43
2022/12/20 06:52:27;;;;;;;52.03;23.93;;;;;;;-2.75;99.35;98768.28;6271194;28;20237;-43
2022/12/20 06:55:29;;;;;;;52.60;22.40;;;;;;;-2.78;99.40;98769.16;6287712;28;20329;-43
2022/12/20 06:58:31;;;;;;;55.17;22.80;;;;;;;-2.75;99.62;98768.28;6274768;28;20723;-43
2022/12/20 07:01:33;;;;;;;53.20;22.23;;;;;;;-2.75;99.51;98768.28;6288488;28;20619;-43
2022/12/20 07:04:36;;;;;;;50.63;21.90;;;;;;;-2.76;99.21;98767.44;6290215;28;20229;-43
2022/12/20 07:07:38;;;;;;;47.60;22.07;;;;;;;-2.74;99.24;98775.16;6290068;28;20254;-43
2022/12/20 07:10:46;;;;;;;50.87;22.47;;;;;;;-2.72;99.47;98771.72;6286410;28;20566;-43
2022/12/20 07:13:49;;;;;;;48.43;21.83;;;;;;;-2.67;99.75;98769.06;6289652;28;20226;-43
2022/12/20 07:16:51;;;;;;;56.33;23.20;;;;;;;-2.70;99.34;98776.88;6285775;28;20237;-43
2022/12/20 07:19:53;;;;;;;53.37;21.77;;;;;;;-2.71;99.22;98803.56;6294132;28;20240;-43
2022/12/20 07:22:55;;;;;;;56.83;23.63;;;;;;;-2.73;99.15;98813.91;6291706;28;20233;-43
2022/12/20 07:25:59;;;;;;;47.10;20.33;;;;;;;-2.70;99.38;98805.28;6290996;28;20234;-43
2022/12/20 07:29:01;;;;;;;42.73;20.33;;;;;;;-2.65;99.28;98790.59;6290681;28;20237;-43
2022/12/20 07:32:04;;;;;;;48.23;22.47;;;;;;;-2.62;99.33;98773.34;6293192;28;20230;-43
2022/12/20 07:35:06;;;;;;;55.50;23.17;;;;;;;-2.58;99.15;98757.78;6292112;28;20234;-44
2022/12/20 07:38:08;;;;;;;53.20;23.20;;;;;;;-2.61;98.96;98740.59;6290707;28;20222;-43
2022/12/20 07:41:17;;;;;;;54.80;23.00;;;;;;;-2.62;98.76;98754.38;6294644;28;20262;-43
2022/12/20 07:44:19;;;;;;;58.07;22.17;;;;;;;-2.57;98.65;98775.84;6297170;28;20226;-43
2022/12/20 07:47:21;;;;;;;54.13;23.53;;;;;;;-2.54;99.33;98773.25;6292825;28;20229;-43
2022/12/20 07:50:24;;;;;;;53.13;22.10;;;;;;;-2.51;98.68;98762.88;6295038;28;20241;-43
2022/12/20 07:53:30;;;;;;;51.93;21.53;;;;;;;-2.53;98.90;98756.00;6292684;28;20234;-43
2022/12/20 07:56:36;;;;;;;45.50;20.90;;;;;;;-2.45;98.81;98764.53;6291870;28;20238;-43
2022/12/20 07:59:49;;;;;;;53.40;22.43;;;;;;;-2.46;98.45;98760.22;6291961;28;20233;-43
2022/12/20 08:03:14;;;;;;;49.53;21.27;;;;;;;-2.49;98.58;98765.41;6286652;28;20267;-43
2022/12/20 08:06:17;;;;;;;52.27;21.53;;;;;;;-2.45;98.61;98760.22;6292525;28;20700;-44
2022/12/20 08:09:19;;;;;;;54.10;22.47;;;;;;;-2.41;98.54;98766.22;6288909;28;20354;-43
2022/12/20 08:12:22;;;;;;;49.77;22.17;;;;;;;-2.42;98.51;98765.38;6292641;28;20650;-43
2022/12/20 08:15:27;;;;;;;44.20;20.17;;;;;;;-2.36;98.67;98774.75;6294560;28;20323;-44
2022/12/20 08:18:30;;;;;;;52.73;20.97;;;;;;;-2.30;98.33;98769.53;6292143;28;20687;-43
2022/12/20 08:21:32;;;;;;;47.90;21.43;;;;;;;-2.29;98.15;98761.75;6291953;28;20226;-43
2022/12/20 08:24:34;;;;;;;46.63;21.33;;;;;;;-2.26;98.25;98759.13;6290871;28;20225;-43
2022/12/20 08:27:37;;;;;;;51.30;23.27;;;;;;;-2.21;98.25;98746.16;6292108;28;20229;-43
2022/12/20 08:30:39;;;;;;;50.47;22.90;;;;;;;-2.20;97.91;98739.25;6293656;28;20233;-43
2022/12/20 08:33:41;;;;;;;44.13;22.20;;;;;;;-2.19;97.72;98751.28;6288185;28;20230;-43
2022/12/20 08:36:44;;;;;;;55.40;22.30;;;;;;;-2.16;97.59;98751.25;6292027;28;20359;-45
2022/12/20 08:39:46;;;;;;;42.57;20.93;;;;;;;-2.10;97.64;98738.28;6292359;28;20225;-43
2022/12/20 08:42:48;;;;;;;49.53;21.00;;;;;;;-2.07;97.31;98745.97;6292011;28;20230;-43
2022/12/20 08:45:53;;;;;;;47.73;21.47;;;;;;;-2.10;97.02;98751.19;6291568;28;20230;-43
2022/12/20 08:48:55;;;;;;;46.43;20.83;;;;;;;-2.10;97.15;98746.03;6291536;28;20232;-43
2022/12/20 08:51:57;;;;;;;51.77;22.20;;;;;;;-2.11;96.73;98737.41;6291514;28;20226;-43
2022/12/20 08:54:59;;;;;;;43.60;20.33;;;;;;;-2.09;97.01;98727.88;6293688;28;20723;-42
2022/12/20 08:58:03;;;;;;;50.17;22.83;;;;;;;-2.10;96.76;98739.13;6291772;28;20232;-43
2022/12/20 09:01:07;;;;;;;45.43;21.10;;;;;;;-2.12;96.78;98729.66;6291471;28;20646;-43
2022/12/20 09:04:10;;;;;;;51.63;24.03;;;;;;;-2.11;96.68;98734.81;6295307;28;20221;-43
2022/12/20 09:07:13;;;;;;;46.67;20.83;;;;;;;-2.08;96.72;98720.97;6292209;28;20245;-43
2022/12/20 09:10:15;;;;;;;51.10;20.97;;;;;;;-2.15;96.60;98742.63;6291365;28;20241;-43
2022/12/20 09:13:17;;;;;;;47.43;20.13;;;;;;;-2.13;96.73;98736.56;6291028;28;20240;-43
2022/12/20 09:16:22;;;;;;;47.77;22.00;;;;;;;-2.06;96.72;98748.53;6285761;28;20234;-43
2022/12/20 09:19:24;;;;;;;48.60;21.40;;;;;;;-2.07;96.46;98740.78;6284500;28;20326;-43
2022/12/20 09:22:28;;;;;;;46.17;22.10;;;;;;;-2.10;96.32;98726.19;6291766;28;20252;-43
2022/12/20 09:25:32;;;;;;;53.97;22.70;;;;;;;-2.08;96.01;98724.41;6291594;28;20749;-43
2022/12/20 09:28:34;;;;;;;51.87;21.73;;;;;;;-2.08;96.09;98720.97;6289212;28;20227;-43
2022/12/20 09:31:36;;;;;;;47.97;21.63;;;;;;;-2.04;96.10;98715.75;6294515;28;20256;-43
2022/12/20 09:34:38;;;;;;;47.63;20.60;;;;;;;-2.05;95.93;98711.47;6290675;28;20306;-43
2022/12/20 09:37:40;;;;;;;47.17;21.53;;;;;;;-2.04;96.02;98708.00;6291385;28;20237;-45
2022/12/20 09:40:49;;;;;;;55.67;22.87;;;;;;;-2.06;95.68;98708.88;6289529;28;20230;-43
2022/12/20 09:43:52;;;;;;;48.20;21.53;;;;;;;-2.10;95.65;98717.59;6292145;28;20705;-43
2022/12/20 09:47:06;;;;;;;50.07;22.90;;;;;;;-2.12;96.00;98707.25;6288880;28;20641;-43
2022/12/20 09:50:16;;;;;;;52.00;23.00;;;;;;;-2.13;95.87;98715.03;6293995;28;20263;-43
2022/12/20 09:53:35;;;;;;;53.57;22.87;;;;;;;-2.11;96.15;98708.13;6290391;28;20221;-43
2022/12/20 09:56:45;;;;;;;46.03;20.17;;;;;;;-2.01;96.44;98707.13;6292532;28;20234;-43
2022/12/20 09:59:47;;;;;;;50.17;22.70;;;;;;;-1.96;96.04;98698.41;6288553;28;20858;-43
2022/12/20 10:02:51;;;;;;;45.73;20.20;;;;;;;-1.98;95.70;98700.16;6289022;28;20245;-43
2022/12/20 10:06:21;;;;;;;46.60;21.60;;;;;;;-2.10;95.36;98694.31;6289728;28;20249;-43
2022/12/20 10:09:36;;;;;;;51.90;21.13;;;;;;;-2.04;95.83;98694.22;6292447;28;20234;-44
2022/12/20 10:13:06;;;;;;;44.07;19.37;;;;;;;-2.03;95.55;98703.69;6290648;28;20215;-43
2022/12/20 10:16:12;;;;;;;48.73;20.70;;;;;;;-2.08;95.79;98700.28;6261711;28;20612;-43
2022/12/20 10:19:29;;;;;;;46.50;21.93;;;;;;;-2.06;95.73;98695.97;6290855;28;20320;-43
2022/12/20 10:22:45;;;;;;;43.70;18.87;;;;;;;-2.01;95.94;98682.09;6277064;28;20458;-44
2022/12/20 10:25:49;;;;;;;48.73;20.53;;;;;;;-1.94;95.60;98677.69;6288542;28;20230;-44
2022/12/20 10:28:51;;;;;;;45.83;20.47;;;;;;;-1.89;95.85;98673.28;6287100;28;20264;-43
2022/12/20 10:31:59;;;;;;;47.67;21.40;;;;;;;-1.89;95.45;98676.72;6291283;28;20230;-43
2022/12/20 10:35:25;;;;;;;46.47;19.63;;;;;;;-1.84;95.43;98673.25;6287230;28;20312;-43
2022/12/20 10:38:44;;;;;;;48.87;20.23;;;;;;;-1.85;95.27;98662.03;6285287;28;20233;-43
2022/12/20 10:41:48;;;;;;;48.17;20.73;;;;;;;-1.80;95.16;98659.38;6286184;28;20222;-43
2022/12/20 10:44:51;;;;;;;44.57;19.53;;;;;;;-1.82;95.02;98655.97;6295298;28;20265;-43
2022/12/20 10:47:59;;;;;;;43.03;19.93;;;;;;;-1.84;95.12;98650.81;6287914;28;20222;-43
2022/12/20 10:51:14;;;;;;;45.67;19.03;;;;;;;-1.88;95.47;98647.41;6289419;28;20259;-44
2022/12/20 10:54:45;;;;;;;48.33;20.33;;;;;;;-1.84;95.38;98643.06;6294801;28;20226;-43
2022/12/20 10:57:47;;;;;;;53.87;22.07;;;;;;;-1.87;95.50;98643.09;6294208;28;20233;-44
2022/12/20 11:00:49;;;;;;;52.13;21.23;;;;;;;-1.87;95.43;98637.91;6295746;28;20298;-43
2022/12/20 11:04:06;;;;;;;44.70;19.90;;;;;;;-1.88;95.59;98631.88;6299176;28;20561;-43
2022/12/20 11:07:27;;;;;;;42.90;20.00;;;;;;;-1.81;95.64;98624.03;6293799;28;20237;-45
2022/12/20 11:10:29;;;;;;;48.03;19.77;;;;;;;-1.85;95.53;98618.06;6294061;28;20287;-43
2022/12/20 11:13:31;;;;;;;47.67;19.83;;;;;;;-1.81;95.52;98619.72;6295794;28;20230;-43
2022/12/20 11:16:39;;;;;;;55.13;23.13;;;;;;;-1.78;95.59;98600.69;6293010;28;20232;-43
2022/12/20 11:20:19;;;;;;;47.33;19.97;;;;;;;-1.75;95.26;98585.13;6293507;28;20740;-43
2022/12/20 11:23:40;;;;;;;43.87;20.43;;;;;;;-1.71;95.81;98592.81;6296820;28;20240;-43
2022/12/20 11:26:56;;;;;;;41.80;18.53;;;;;;;-1.73;95.30;98586.81;6294885;28;20227;-43
2022/12/20 11:30:23;;;;;;;49.67;19.60;;;;;;;-1.84;95.14;98590.47;6287954;28;20234;-43
2022/12/20 11:34:00;;;;;;;50.20;18.87;;;;;;;-1.86;95.31;98575.81;6291364;28;20370;-43
2022/12/20 11:37:18;;;;;;;50.30;20.17;;;;;;;-1.94;95.19;98569.91;6183037;28;20241;-43
2022/12/20 11:40:26;;;;;;;43.70;19.17;;;;;;;-1.92;95.59;98580.25;6293942;28;20234;-43
2022/12/20 11:43:46;;;;;;;40.27;18.60;;;;;;;-1.87;95.75;98568.06;6294679;28;20226;-43
2022/12/20 11:47:20;;;;;;;39.90;19.40;;;;;;;-1.87;95.69;98568.06;6290701;28;20240;-43
2022/12/20 11:50:54;;;;;;;46.90;19.93;;;;;;;-1.83;95.86;98568.88;6300362;28;20234;-43
2022/12/20 11:54:07;;;;;;;47.27;19.77;;;;;;;-1.93;95.26;98566.47;6294566;28;20383;-43
2022/12/20 11:57:37;;;;;;;37.07;17.60;;;;;;;-1.91;95.72;98551.78;6291451;28;20238;-43
2022/12/20 12:01:12;;;;;;;46.80;20.17;;;;;;;-1.88;95.76;98550.84;6286040;28;20234;-43
2022/12/20 12:04:29;;;;;;;42.57;19.37;;;;;;;-1.91;95.75;98537.97;6293627;28;20598;-43
2022/12/20 12:07:34;;;;;;;41.63;19.47;;;;;;;-1.96;95.86;98537.19;6291587;28;20253;-43
2022/12/20 12:10:41;;;;;;;38.60;16.73;;;;;;;-1.95;96.01;98528.56;6290763;28;20367;-44
2022/12/20 12:13:44;;;;;;;43.07;19.17;;;;;;;-1.93;95.99;98530.25;6292179;28;20459;-43
2022/12/20 12:16:52;;;;;;;46.37;20.50;;;;;;;-1.99;95.64;98512.22;6272426;28;20230;-43
2022/12/20 12:20:08;;;;;;;44.50;18.80;;;;;;;-2.05;95.91;98507.16;6292572;28;20313;-43
2022/12/20 12:23:21;;;;;;;40.77;17.77;;;;;;;-2.03;95.97;98515.75;6291139;28;20234;-43
2022/12/20 12:26:27;;;;;;;40.20;19.03;;;;;;;-2.04;96.20;98511.47;6288039;28;20238;-43
2022/12/20 12:29:32;;;;;;;44.10;18.73;;;;;;;-2.08;96.06;98511.53;6291758;28;20226;-43
2022/12/20 12:32:48;;;;;;;46.60;20.20;;;;;;;-2.10;96.14;98514.16;6294104;28;20712;-43
2022/12/20 12:35:50;;;;;;;42.80;18.90;;;;;;;-2.07;96.28;98500.31;6295256;28;20597;-44
2022/12/20 12:39:11;;;;;;;43.87;18.93;;;;;;;-2.08;96.31;98494.28;6295731;28;20241;-43
2022/12/20 12:42:51;;;;;;;50.63;21.13;;;;;;;-2.13;96.47;98496.09;6293126;28;20245;-44
2022/12/20 12:45:58;;;;;;;39.13;18.53;;;;;;;-2.11;96.67;98517.63;6295375;28;20232;-43
2022/12/20 12:49:16;;;;;;;49.03;20.20;;;;;;;-2.10;96.35;98518.47;6290869;28;20764;-43
2022/12/20 12:52:29;;;;;;;49.47;19.87;;;;;;;-2.11;96.69;98512.47;6288589;28;20242;-43
2022/12/20 12:55:48;;;;;;;41.53;19.03;;;;;;;-2.10;96.67;98505.56;6292932;28;20606;-43
2022/12/20 12:59:05;;;;;;;41.37;19.13;;;;;;;-2.09;96.84;98499.47;6291761;28;20226;-44
2022/12/20 13:02:13;;;;;;;45.13;19.73;;;;;;;-2.09;96.88;98496.88;6292743;28;20230;-43
2022/12/20 13:05:29;;;;;;;48.20;19.57;;;;;;;-2.15;96.70;98490.09;6291290;28;20717;-44
2022/12/20 13:09:02;;;;;;;45.80;19.63;;;;;;;-2.19;96.93;98503.94;6291425;28;20235;-43
2022/12/20 13:12:35;;;;;;;44.10;19.30;;;;;;;-2.18;97.01;98512.56;6290785;28;20226;-43
2022/12/20 13:15:40;;;;;;;45.27;20.43;;;;;;;-2.24;97.27;98509.22;6290566;28;20641;-44
2022/12/20 13:19:01;;;;;;;50.53;20.40;;;;;;;-2.26;97.49;98512.69;6291770;28;20242;-43
2022/12/20 13:22:20;;;;;;;46.53;19.53;;;;;;;-2.23;97.58;98504.91;6290695;28;20295;-44
2022/12/20 13:25:30;;;;;;;41.07;18.23;;;;;;;-2.18;97.54;98513.41;6289061;28;20231;-43
2022/12/20 13:28:32;;;;;;;50.03;19.60;;;;;;;-2.11;97.72;98511.59;6289325;28;20241;-43
2022/12/20 13:31:34;;;;;;;44.67;18.43;;;;;;;-2.08;97.97;98503.78;6291070;28;20264;-43
2022/12/20 13:34:57;;;;;;;50.37;21.40;;;;;;;-2.16;97.46;98508.22;6290828;28;20238;-43
2022/12/20 13:38:10;;;;;;;44.80;19.50;;;;;;;-2.20;97.37;98510.03;6286933;28;20231;-43
2022/12/20 13:41:22;;;;;;;48.80;19.83;;;;;;;-2.18;97.58;98516.00;6292492;28;20607;-44
2022/12/20 13:44:51;;;;;;;47.57;21.13;;;;;;;-2.16;97.73;98514.25;6290775;28;20595;-44
2022/12/20 13:48:00;;;;;;;51.27;21.57;;;;;;;-2.18;97.65;98512.56;6288939;28;20329;-43
2022/12/20 13:51:21;;;;;;;48.00;21.17;;;;;;;-2.18;97.74;98507.38;6291297;28;20663;-43
2022/12/20 13:54:23;;;;;;;45.83;19.90;;;;;;;-2.21;97.74;98504.88;6290467;28;20439;-43
2022/12/20 13:57:43;;;;;;;49.93;20.87;;;;;;;-2.26;97.82;98498.03;6288760;28;20604;-43
2022/12/20 14:00:48;;;;;;;60.37;22.40;;;;;;;-2.28;98.08;98493.75;6290791;28;20252;-44
2022/12/20 14:03:52;;;;;;;42.53;19.90;;;;;;;-2.28;98.08;98486.00;6291009;28;20236;-43
2022/12/20 14:07:00;;;;;;;51.90;21.07;;;;;;;-2.30;98.16;98480.88;6291085;28;20571;-43
2022/12/20 14:10:16;;;;;;;42.90;20.00;;;;;;;-2.35;98.53;98476.66;6289633;28;20245;-43
2022/12/20 14:13:24;;;;;;;46.70;20.53;;;;;;;-2.33;98.43;98469.72;6289352;28;20257;-44
2022/12/20 14:16:29;;;;;;;45.47;19.77;;;;;;;-2.35;98.55;98474.91;6274741;28;20241;-43
2022/12/20 14:19:31;;;;;;;48.93;20.60;;;;;;;-2.34;98.57;98468.03;6290497;28;20241;-43
2022/12/20 14:22:35;;;;;;;58.83;21.73;;;;;;;-2.36;98.68;98470.63;6291594;28;20245;-44
2022/12/20 14:25:43;;;;;;;51.90;20.83;;;;;;;-2.40;98.82;98465.56;6288588;28;20234;-43
2022/12/20 14:28:48;;;;;;;51.50;21.47;;;;;;;-2.43;98.75;98474.19;6296148;28;21100;-43
2022/12/20 14:31:50;;;;;;;52.97;22.00;;;;;;;-2.48;99.26;98482.88;6297900;28;20326;-43
2022/12/20 14:34:53;;;;;;;48.83;20.17;;;;;;;-2.50;99.08;98479.50;6294622;28;20241;-44